Time,TemperatureF,DewpointF,PressureIn,WindDirection,WindDirectionDegrees,WindSpeedMPH,WindSpeedGustMPH,Humidity,HourlyPrecipIn,Conditions,Clouds,dailyrainin,SolarRadiationWatts/m^2,SoftwareType,DateUTC
2013-04-21 00:13:00,41.8,34.0,30.19,East,98,8.0,-999.0,73,-99.99,,,0.00,0,weatherlink.com 1.10,2013-04-21 05:13:00,
2013-04-21 00:28:00,41.6,34.0,30.19,East,99,8.0,-999.0,73,-99.99,,,0.00,0,weatherlink.com 1.10,2013-04-21 05:28:00,
2013-04-21 00:43:00,41.6,34.0,30.18,ESE,102,8.0,-999.0,73,-99.99,,,0.00,0,weatherlink.com 1.10,2013-04-21 05:43:00,
2013-04-21 00:58:00,41.6,34.0,30.18,ESE,103,9.0,-999.0,73,-99.99,,,0.00,0,weatherlink.com 1.10,2013-04-21 05:58:00,
2013-04-21 01:13:00,41.8,34.0,30.18,ESE,121,8.0,-999.0,73,-99.99,,,0.00,0,weatherlink.com 1.10,2013-04-21 06:13:00,
2013-04-21 01:28:00,41.7,34.0,30.18,ESE,121,9.0,-999.0,74,-99.99,,,0.00,0,weatherlink.com 1.10,2013-04-21 06:28:00,
2013-04-21 01:43:00,41.7,34.0,30.17,ESE,118,8.0,-999.0,75,-99.99,,,0.00,0,weatherlink.com 1.10,2013-04-21 06:43:00,
2013-04-21 01:58:00,42.0,34.0,30.17,SE,124,9.0,-999.0,74,-99.99,,,0.00,0,weatherlink.com 1.10,2013-04-21 06:58:00,
2013-04-21 02:13:00,42.4,35.0,30.17,ESE,120,8.0,-999.0,74,-99.99,,,0.00,0,weatherlink.com 1.10,2013-04-21 07:13:00,
2013-04-21 02:28:00,42.4,35.0,30.16,ESE,117,8.0,-999.0,74,-99.99,,,0.00,0,weatherlink.com 1.10,2013-04-21 07:28:00,
2013-04-21 02:43:00,42.2,35.0,30.16,ESE,119,9.0,-999.0,75,-99.99,,,0.00,0,weatherlink.com 1.10,2013-04-21 07:43:00,
2013-04-21 02:58:00,42.1,35.0,30.15,SE,127,8.0,-999.0,75,-99.99,,,0.00,0,weatherlink.com 1.10,2013-04-21 07:58:00,
2013-04-21 03:13:00,42.0,35.0,30.15,ESE,117,8.0,-999.0,76,-99.99,,,0.00,0,weatherlink.com 1.10,2013-04-21 08:13:00,
2013-04-21 03:28:00,42.0,35.0,30.15,ESE,123,11.0,-999.0,76,-99.99,,,0.00,0,weatherlink.com 1.10,2013-04-21 08:28:00,
2013-04-21 03:43:00,42.1,35.0,30.15,SE,132,11.0,-999.0,76,-99.99,,,0.00,0,weatherlink.com 1.10,2013-04-21 08:43:00,
2013-04-21 03:58:00,42.1,35.0,30.14,SE,133,11.0,-999.0,77,-99.99,,,0.00,0,weatherlink.com 1.10,2013-04-21 08:58:00,
2013-04-21 04:13:00,42.2,35.0,30.14,SE,137,10.0,-999.0,77,-99.99,,,0.00,0,weatherlink.com 1.10,2013-04-21 09:13:00,
2013-04-21 04:28:00,42.4,36.0,30.14,SE,134,12.0,-999.0,77,-99.99,,,0.00,0,weatherlink.com 1.10,2013-04-21 09:28:00,
2013-04-21 04:43:00,42.2,36.0,30.14,SE,138,14.0,-999.0,78,-99.99,,,0.00,0,weatherlink.com 1.10,2013-04-21 09:43:00,
2013-04-21 04:58:00,42.0,36.0,30.14,SE,142,10.0,-999.0,78,-99.99,,,0.00,0,weatherlink.com 1.10,2013-04-21 09:58:00,
2013-04-21 05:13:00,41.8,36.0,30.14,SSE,149,12.0,-999.0,79,-99.99,,,0.00,0,weatherlink.com 1.10,2013-04-21 10:13:00,
2013-04-21 05:28:00,41.7,36.0,30.14,SSE,157,11.0,-999.0,79,-99.99,,,0.00,0,weatherlink.com 1.10,2013-04-21 10:28:00,
2013-04-21 05:43:00,41.3,35.0,30.13,SE,141,12.0,-999.0,79,-99.99,,,0.00,0,weatherlink.com 1.10,2013-04-21 10:43:00,
2013-04-21 05:58:00,41.0,35.0,30.13,SE,142,10.0,-999.0,80,-99.99,,,0.00,0,weatherlink.com 1.10,2013-04-21 10:58:00,
2013-04-21 06:13:00,40.8,35.0,30.13,SE,140,10.0,-999.0,81,-99.99,,,0.00,0,weatherlink.com 1.10,2013-04-21 11:13:00,
2013-04-21 06:28:00,41.0,36.0,30.14,SE,146,12.0,-999.0,82,-99.99,,,0.00,0,weatherlink.com 1.10,2013-04-21 11:28:00,
2013-04-21 06:43:00,41.3,36.0,30.14,SSE,157,9.0,-999.0,82,-99.99,,,0.00,0,weatherlink.com 1.10,2013-04-21 11:43:00,
2013-04-21 06:58:00,41.7,37.0,30.15,SSE,159,16.0,-999.0,82,-99.99,,,0.00,5,weatherlink.com 1.10,2013-04-21 11:58:00,
2013-04-21 07:13:00,42.2,37.0,30.15,SSE,155,14.0,-999.0,82,-99.99,,,0.00,12,weatherlink.com 1.10,2013-04-21 12:13:00,
2013-04-21 07:28:00,42.5,37.0,30.15,SE,139,11.0,-999.0,81,-99.99,,,0.00,23,weatherlink.com 1.10,2013-04-21 12:28:00,
2013-04-21 07:43:00,43.1,38.0,30.15,SSE,161,14.0,-999.0,81,-99.99,,,0.00,28,weatherlink.com 1.10,2013-04-21 12:43:00,
2013-04-21 07:58:00,43.4,38.0,30.16,SSE,167,7.0,-999.0,81,-99.99,,,0.00,32,weatherlink.com 1.10,2013-04-21 12:58:00,
2013-04-21 08:13:00,43.7,39.0,30.16,SE,145,14.0,-999.0,82,-99.99,,,0.00,56,weatherlink.com 1.10,2013-04-21 13:13:00,
2013-04-21 08:28:00,45.0,39.0,30.15,South,169,13.0,-999.0,80,-99.99,,,0.00,91,weatherlink.com 1.10,2013-04-21 13:28:00,
2013-04-21 08:43:00,45.6,40.0,30.15,SSE,161,11.0,-999.0,80,-99.99,,,0.00,111,weatherlink.com 1.10,2013-04-21 13:43:00,
2013-04-21 08:58:00,47.2,41.0,30.15,SSE,161,14.0,-999.0,79,-99.99,,,0.00,441,weatherlink.com 1.10,2013-04-21 13:58:00,
2013-04-21 09:13:00,49.5,42.0,30.15,SSE,157,10.0,-999.0,74,-99.99,,,0.00,267,weatherlink.com 1.10,2013-04-21 14:13:00,
2013-04-21 09:28:00,52.5,43.0,30.15,South,170,13.0,-999.0,71,-99.99,,,0.00,513,weatherlink.com 1.10,2013-04-21 14:28:00,
2013-04-21 09:43:00,54.2,43.0,30.15,South,172,16.0,-999.0,66,-99.99,,,0.00,563,weatherlink.com 1.10,2013-04-21 14:43:00,
2013-04-21 09:58:00,55.4,43.0,30.14,SSE,168,14.0,-999.0,64,-99.99,,,0.00,617,weatherlink.com 1.10,2013-04-21 14:58:00,
2013-04-21 10:13:00,57.4,44.0,30.14,SSW,196,22.0,-999.0,61,-99.99,,,0.00,666,weatherlink.com 1.10,2013-04-21 15:13:00,
2013-04-21 10:28:00,59.3,44.0,30.13,South,182,24.0,-999.0,57,-99.99,,,0.00,696,weatherlink.com 1.10,2013-04-21 15:28:00,
2013-04-21 10:44:00,60.7,42.0,30.13,SSW,206,26.0,-999.0,51,-99.99,,,0.00,679,weatherlink.com 1.10,2013-04-21 15:44:00,
2013-04-21 10:59:00,61.3,42.0,30.13,SSW,202,23.0,-999.0,49,-99.99,,,0.00,603,weatherlink.com 1.10,2013-04-21 15:59:00,
2013-04-21 11:14:00,62.3,43.0,30.13,SSW,209,18.0,-999.0,50,-99.99,,,0.00,594,weatherlink.com 1.10,2013-04-21 16:14:00,
2013-04-21 11:29:00,63.4,43.0,30.12,SSW,197,25.0,-999.0,47,-99.99,,,0.00,733,weatherlink.com 1.10,2013-04-21 16:29:00,
2013-04-21 11:44:00,64.7,43.0,30.12,SSW,201,24.0,-999.0,45,-99.99,,,0.00,759,weatherlink.com 1.10,2013-04-21 16:44:00,
2013-04-21 11:59:00,65.4,43.0,30.11,SSW,198,24.0,-999.0,44,-99.99,,,0.00,554,weatherlink.com 1.10,2013-04-21 16:59:00,
2013-04-21 12:14:00,64.7,43.0,30.11,SSW,198,27.0,-999.0,45,-99.99,,,0.00,538,weatherlink.com 1.10,2013-04-21 17:14:00,
2013-04-21 12:29:00,65.4,43.0,30.10,SSW,197,19.0,-999.0,44,-99.99,,,0.00,1121,weatherlink.com 1.10,2013-04-21 17:29:00,
2013-04-21 12:44:00,66.8,43.0,30.09,SSW,201,16.0,-999.0,43,-99.99,,,0.00,784,weatherlink.com 1.10,2013-04-21 17:44:00,
2013-04-21 12:59:00,66.6,43.0,30.09,South,186,19.0,-999.0,42,-99.99,,,0.00,654,weatherlink.com 1.10,2013-04-21 17:59:00,
2013-04-21 13:14:00,66.2,43.0,30.08,SSW,194,17.0,-999.0,43,-99.99,,,0.00,918,weatherlink.com 1.10,2013-04-21 18:14:00,
2013-04-21 13:29:00,65.9,42.0,30.08,South,178,20.0,-999.0,42,-99.99,,,0.00,311,weatherlink.com 1.10,2013-04-21 18:29:00,
2013-04-21 13:44:00,66.2,42.0,30.07,SSW,193,25.0,-999.0,42,-99.99,,,0.00,399,weatherlink.com 1.10,2013-04-21 18:44:00,
2013-04-21 13:59:00,66.1,43.0,30.07,SSW,207,22.0,-999.0,43,-99.99,,,0.00,366,weatherlink.com 1.10,2013-04-21 18:59:00,
2013-04-21 14:14:00,64.7,43.0,30.07,South,177,19.0,-999.0,45,-99.99,,,0.00,353,weatherlink.com 1.10,2013-04-21 19:14:00,
2013-04-21 14:29:00,65.8,43.0,30.07,SSW,200,21.0,-999.0,44,-99.99,,,0.00,802,weatherlink.com 1.10,2013-04-21 19:29:00,
2013-04-21 14:44:00,68.3,44.0,30.06,SSW,205,23.0,-999.0,42,-99.99,,,0.00,548,weatherlink.com 1.10,2013-04-21 19:44:00,
2013-04-21 14:59:00,67.3,44.0,30.05,South,185,23.0,-999.0,43,-99.99,,,0.00,448,weatherlink.com 1.10,2013-04-21 19:59:00,
2013-04-21 15:14:00,67.0,44.0,30.05,South,184,18.0,-999.0,44,-99.99,,,0.00,408,weatherlink.com 1.10,2013-04-21 20:14:00,
2013-04-21 15:29:00,67.8,45.0,30.05,SSW,198,16.0,-999.0,44,-99.99,,,0.00,482,weatherlink.com 1.10,2013-04-21 20:29:00,
2013-04-21 15:44:00,68.1,44.0,30.04,SSW,193,22.0,-999.0,42,-99.99,,,0.00,309,weatherlink.com 1.10,2013-04-21 20:44:00,
2013-04-21 15:59:00,68.1,45.0,30.03,SSW,199,23.0,-999.0,43,-99.99,,,0.00,410,weatherlink.com 1.10,2013-04-21 20:59:00,
2013-04-21 16:14:00,67.6,44.0,30.03,South,186,14.0,-999.0,43,-99.99,,,0.00,283,weatherlink.com 1.10,2013-04-21 21:14:00,
2013-04-21 16:29:00,67.6,44.0,30.03,South,180,20.0,-999.0,43,-99.99,,,0.00,211,weatherlink.com 1.10,2013-04-21 21:29:00,
2013-04-21 16:44:00,66.4,44.0,30.02,SSW,192,21.0,-999.0,45,-99.99,,,0.00,181,weatherlink.com 1.10,2013-04-21 21:44:00,
2013-04-21 16:59:00,66.7,44.0,30.02,South,187,13.0,-999.0,44,-99.99,,,0.00,153,weatherlink.com 1.10,2013-04-21 21:59:00,
2013-04-21 17:14:00,66.3,44.0,30.02,SSW,202,14.0,-999.0,45,-99.99,,,0.00,171,weatherlink.com 1.10,2013-04-21 22:14:00,
2013-04-21 17:29:00,67.6,45.0,30.02,South,180,15.0,-999.0,44,-99.99,,,0.00,264,weatherlink.com 1.10,2013-04-21 22:29:00,
2013-04-21 17:44:00,67.6,45.0,30.01,South,177,18.0,-999.0,45,-99.99,,,0.00,294,weatherlink.com 1.10,2013-04-21 22:44:00,
2013-04-21 17:59:00,67.6,45.0,30.01,SSE,163,22.0,-999.0,45,-99.99,,,0.00,394,weatherlink.com 1.10,2013-04-21 22:59:00,
2013-04-21 18:15:00,68.2,45.0,30.01,South,175,20.0,-999.0,44,-99.99,,,0.00,135,weatherlink.com 1.10,2013-04-21 23:15:00,
2013-04-21 18:30:00,66.1,45.0,30.01,SSW,192,11.0,-999.0,47,-99.99,,,0.00,190,weatherlink.com 1.10,2013-04-21 23:30:00,
2013-04-21 18:45:00,65.6,45.0,30.01,South,178,14.0,-999.0,47,-99.99,,,0.00,65,weatherlink.com 1.10,2013-04-21 23:45:00,
2013-04-21 19:00:00,64.9,45.0,30.01,South,188,16.0,-999.0,48,-99.99,,,0.00,54,weatherlink.com 1.10,2013-04-22 00:00:00,
2013-04-21 19:15:00,64.2,44.0,30.01,South,185,12.0,-999.0,49,-99.99,,,0.00,14,weatherlink.com 1.10,2013-04-22 00:15:00,
2013-04-21 19:30:00,63.4,45.0,30.02,SW,217,9.0,-999.0,51,-99.99,,,0.00,0,weatherlink.com 1.10,2013-04-22 00:30:00,
2013-04-21 19:45:00,61.0,47.0,30.07,West,277,15.0,-999.0,61,-99.99,,,0.00,0,weatherlink.com 1.10,2013-04-22 00:45:00,
2013-04-21 20:00:00,56.3,49.0,30.07,NW,325,18.0,-999.0,76,-99.99,,,0.06,0,weatherlink.com 1.10,2013-04-22 01:00:00,
2013-04-21 20:15:00,52.9,48.0,30.07,North,5,5.0,-999.0,84,-99.99,,,0.08,0,weatherlink.com 1.10,2013-04-22 01:15:00,
2013-04-21 20:30:00,51.9,48.0,30.08,NNE,32,7.0,-999.0,87,-99.99,,,0.08,0,weatherlink.com 1.10,2013-04-22 01:30:00,
2013-04-21 20:45:00,51.5,48.0,30.10,NW,324,2.0,-999.0,89,-99.99,,,0.09,0,weatherlink.com 1.10,2013-04-22 01:45:00,
2013-04-21 21:00:00,51.4,49.0,30.10,NE,55,10.0,-999.0,90,-99.99,,,0.16,0,weatherlink.com 1.10,2013-04-22 02:00:00,
2013-04-21 21:15:00,50.9,48.0,30.09,ENE,77,7.0,-999.0,91,-99.99,,,0.17,0,weatherlink.com 1.10,2013-04-22 02:15:00,
2013-04-21 21:30:00,50.7,49.0,30.11,East,80,6.0,-999.0,92,-99.99,,,0.17,0,weatherlink.com 1.10,2013-04-22 02:30:00,
2013-04-21 21:45:00,50.7,49.0,30.11,East,79,4.0,-999.0,92,-99.99,,,0.17,0,weatherlink.com 1.10,2013-04-22 02:45:00,
2013-04-21 22:00:00,50.5,48.0,30.12,ENE,75,8.0,-999.0,92,-99.99,,,0.17,0,weatherlink.com 1.10,2013-04-22 03:00:00,
2013-04-21 22:15:00,50.2,48.0,30.12,NE,51,4.0,-999.0,92,-99.99,,,0.17,0,weatherlink.com 1.10,2013-04-22 03:15:00,
2013-04-21 22:30:00,50.1,48.0,30.12,ENE,62,5.0,-999.0,92,-99.99,,,0.17,0,weatherlink.com 1.10,2013-04-22 03:30:00,
2013-04-21 22:45:00,50.1,48.0,30.12,ENE,72,5.0,-999.0,92,-99.99,,,0.17,0,weatherlink.com 1.10,2013-04-22 03:45:00,
2013-04-21 23:00:00,50.1,48.0,30.12,NE,53,5.0,-999.0,92,-99.99,,,0.17,0,weatherlink.com 1.10,2013-04-22 04:00:00,
2013-04-21 23:15:00,49.9,48.0,30.12,ENE,71,3.0,-999.0,92,-99.99,,,0.17,0,weatherlink.com 1.10,2013-04-22 04:15:00,
2013-04-21 23:30:00,49.9,48.0,30.13,SE,135,4.0,-999.0,92,-99.99,,,0.17,0,weatherlink.com 1.10,2013-04-22 04:30:00,
2013-04-21 23:45:00,49.9,48.0,30.13,NE,52,0.0,-999.0,92,-99.99,,,0.17,0,weatherlink.com 1.10,2013-04-22 04:45:00,